Time;durP1;ratioP1;P1;durP2;ratioP2;P2;SDS_P1;SDS_P2;PMS_P1;PMS_P2;Temp;Humidity;BMP_temperature;BMP_pressure;BME280_temperature;BME280_humidity;BME280_pressure;Samples;Min_cycle;Max_cycle;Signal;HPM_P1;HPM_P2
2023/01/13 00:01:10;;;;;;;4.50;1.10;;;;;;;;;;109847;1264;22614;-78
2023/01/13 00:03:38;;;;;;;7.40;1.20;;;;;;;;;;109823;1286;22125;-77
2023/01/13 00:06:08;;;;;;;5.20;1.20;;;;;;;;;;109878;1286;22491;-78
2023/01/13 00:08:35;;;;;;;3.70;1.20;;;;;;;;;;109873;1286;22133;-77
2023/01/13 00:11:03;;;;;;;5.80;1.40;;;;;;;;;;109796;1286;22404;-79
2023/01/13 00:13:34;;;;;;;4.90;1.30;;;;;;;;;;109920;1274;21968;-79
2023/01/13 00:16:03;;;;;;;5.70;1.10;;;;;;;;;;109888;1286;22200;-79
2023/01/13 00:18:31;;;;;;;4.50;1.30;;;;;;;;;;109910;1286;22094;-78
2023/01/13 00:20:59;;;;;;;4.70;1.30;;;;;;;;;;109907;1285;22204;-79
2023/01/13 00:23:27;;;;;;;6.20;1.60;;;;;;;;;;110010;1267;22162;-78
2023/01/13 00:25:58;;;;;;;5.40;1.30;;;;;;;;;;109889;1285;22134;-79
2023/01/13 00:28:25;;;;;;;6.40;1.40;;;;;;;;;;109891;1286;22139;-78
2023/01/13 00:30:57;;;;;;;5.80;1.40;;;;;;;;;;109819;1286;22184;-79
2023/01/13 00:33:31;;;;;;;5.40;1.20;;;;;;;;;;110096;1266;22027;-78
2023/01/13 00:36:00;;;;;;;5.80;1.40;;;;;;;;;;109917;1285;22172;-78
2023/01/13 00:38:30;;;;;;;5.80;1.50;;;;;;;;;;109909;1285;22125;-78
2023/01/13 00:41:00;;;;;;;6.20;1.70;;;;;;;;;;109792;1287;22252;-80
2023/01/13 00:43:31;;;;;;;6.80;1.40;;;;;;;;;;109978;1267;22132;-78
2023/01/13 00:46:00;;;;;;;5.40;1.40;;;;;;;;;;109864;1286;22174;-78
2023/01/13 00:48:30;;;;;;;5.20;1.70;;;;;;;;;;109774;1287;22129;-79
2023/01/13 00:51:04;;;;;;;4.50;1.50;;;;;;;;;;109810;1286;22965;-79
2023/01/13 00:53:38;;;;;;;4.80;1.20;;;;;;;;;;109973;1267;22163;-80
2023/01/13 00:56:13;;;;;;;5.70;1.30;;;;;;;;;;109781;1287;22140;-78
2023/01/13 00:58:43;;;;;;;7.10;1.40;;;;;;;;;;109856;1286;22151;-79
2023/01/13 01:01:14;;;;;;;7.00;1.70;;;;;;;;;;109891;1286;22858;-79
2023/01/13 01:03:42;;;;;;;7.50;1.90;;;;;;;;;;109978;1267;22339;-78
2023/01/13 01:06:16;;;;;;;6.40;2.00;;;;;;;;;;109804;1286;22130;-79
2023/01/13 01:08:46;;;;;;;5.50;1.80;;;;;;;;;;109773;1280;22437;-79
2023/01/13 01:11:18;;;;;;;5.60;1.70;;;;;;;;;;109802;1286;22160;-79
2023/01/13 01:13:47;;;;;;;6.50;1.60;;;;;;;;;;109951;1267;22159;-79
2023/01/13 01:16:18;;;;;;;8.20;1.70;;;;;;;;;;109875;1286;22092;-78
2023/01/13 01:18:48;;;;;;;5.40;1.90;;;;;;;;;;109886;1283;22143;-77
2023/01/13 01:21:17;;;;;;;6.30;1.80;;;;;;;;;;109893;1283;22754;-78
2023/01/13 01:23:47;;;;;;;4.90;1.70;;;;;;;;;;109932;1266;22876;-78
2023/01/13 01:26:17;;;;;;;7.80;2.10;;;;;;;;;;109766;1287;22779;-78
2023/01/13 01:28:46;;;;;;;5.90;1.60;;;;;;;;;;109780;1287;22941;-78
2023/01/13 01:31:16;;;;;;;5.60;1.70;;;;;;;;;;109768;1287;23034;-79
2023/01/13 01:33:47;;;;;;;5.30;1.60;;;;;;;;;;109904;1268;22143;-78
2023/01/13 01:44:02;;;;;;;6.20;1.60;;;;;;;;;;103958;1291;548011;-78
2023/01/13 01:46:34;;;;;;;4.90;1.30;;;;;;;;;;106365;1285;24294;-80
2023/01/13 01:49:21;;;;;;;6.50;1.70;;;;;;;;;;106410;1272;22530;-79
2023/01/13 01:51:50;;;;;;;3.70;1.30;;;;;;;;;;110593;1275;22101;-78
2023/01/13 01:54:22;;;;;;;4.60;1.20;;;;;;;;;;110499;1259;22657;-78
2023/01/13 01:56:51;;;;;;;5.30;1.50;;;;;;;;;;109406;1270;1695924;-78
2023/01/13 01:59:17;;;;;;;5.60;1.40;;;;;;;;;;110682;1264;22213;-78
2023/01/13 02:01:44;;;;;;;5.20;1.50;;;;;;;;;;110651;1273;22197;-80
2023/01/13 02:04:12;;;;;;;6.10;1.40;;;;;;;;;;110696;1255;22154;-78
2023/01/13 02:06:38;;;;;;;4.30;1.30;;;;;;;;;;110653;1273;23240;-79
2023/01/13 02:09:05;;;;;;;5.40;1.70;;;;;;;;;;110648;1272;22236;-78
2023/01/13 02:14:21;;;;;;;4.50;1.40;;;;;;;;;;110692;1256;22110;-78
2023/01/13 02:16:53;;;;;;;5.50;1.70;;;;;;;;;;110663;1273;22213;-80
2023/01/13 02:19:28;;;;;;;5.60;1.40;;;;;;;;;;110674;1273;22134;-79
2023/01/13 02:22:17;;;;;;;4.40;1.20;;;;;;;;;;110677;1273;22151;-78
2023/01/13 02:25:19;;;;;;;;;;;;;;;;;;;;;
2023/01/13 02:28:10;;;;;;;4.70;1.60;;;;;;;;;;110816;1272;22313;-79
2023/01/13 02:34:10;;;;;;;4.90;1.30;;;;;;;;;;110782;1256;22141;-80
2023/01/13 02:36:49;;;;;;;7.70;2.10;;;;;;;;;;110569;1275;22179;-77
2023/01/13 02:39:21;;;;;;;7.80;1.80;;;;;;;;;;110502;1275;22147;-77
2023/01/13 02:44:58;;;;;;;3.20;1.00;;;;;;;;;;110800;1256;22104;-78
2023/01/13 02:47:25;;;;;;;6.40;1.30;;;;;;;;;;110656;1274;22003;-78
2023/01/13 02:50:11;;;;;;;5.30;1.40;;;;;;;;;;110649;1274;22121;-78
2023/01/13 02:52:43;;;;;;;5.50;1.70;;;;;;;;;;110651;1271;22631;-78
2023/01/13 02:55:13;;;;;;;6.40;1.60;;;;;;;;;;110756;1256;22230;-78
2023/01/13 02:57:40;;;;;;;5.00;1.50;;;;;;;;;;110652;1272;22774;-77
2023/01/13 03:00:11;;;;;;;6.60;2.00;;;;;;;;;;110383;1274;22372;-79
2023/01/13 03:02:37;;;;;;;8.30;2.50;;;;;;;;;;110572;1274;22762;-79
2023/01/13 03:05:04;;;;;;;6.60;1.90;;;;;;;;;;110640;1256;22911;-77
2023/01/13 03:07:39;;;;;;;6.30;1.60;;;;;;;;;;110627;1275;22108;-77
2023/01/13 03:10:43;;;;;;;8.00;1.80;;;;;;;;;;110457;1275;22399;-77
2023/01/13 03:13:38;;;;;;;7.90;1.90;;;;;;;;;;110043;1281;22159;-78
2023/01/13 03:16:28;;;;;;;7.70;2.40;;;;;;;;;;109568;1270;23073;-78
2023/01/13 03:19:07;;;;;;;12.00;3.50;;;;;;;;;;109726;1283;22176;-76
2023/01/13 03:21:39;;;;;;;9.10;2.30;;;;;;;;;;109582;1276;21774;-77
2023/01/13 03:24:16;;;;;;;8.80;2.50;;;;;;;;;;109694;1265;22391;-78
2023/01/13 03:26:54;;;;;;;8.30;1.90;;;;;;;;;;109540;1288;22785;-78
2023/01/13 03:29:36;;;;;;;11.10;2.50;;;;;;;;;;109607;1288;22902;-77
2023/01/13 03:32:09;;;;;;;7.10;1.80;;;;;;;;;;109530;1288;23142;-79
2023/01/13 03:34:44;;;;;;;8.30;1.90;;;;;;;;;;109607;1265;22164;-77
2023/01/13 03:37:15;;;;;;;7.30;1.80;;;;;;;;;;109557;1289;22954;-77
2023/01/13 03:39:44;;;;;;;6.60;1.40;;;;;;;;;;109707;1286;22909;-77
2023/01/13 03:42:13;;;;;;;5.50;1.60;;;;;;;;;;109585;1279;22239;-77
2023/01/13 03:44:58;;;;;;;5.80;1.60;;;;;;;;;;109706;1264;22130;-76
2023/01/13 03:47:42;;;;;;;6.50;1.40;;;;;;;;;;109759;1288;22925;-75
2023/01/13 03:50:11;;;;;;;5.80;1.50;;;;;;;;;;109985;1283;22175;-76
2023/01/13 03:52:41;;;;;;;5.00;1.50;;;;;;;;;;110148;1276;22116;-77
2023/01/13 03:55:17;;;;;;;5.60;1.30;;;;;;;;;;110404;1259;22123;-77
2023/01/13 03:58:08;;;;;;;;;;;;;;;;;;;;;
2023/01/13 04:00:45;;;;;;;4.50;1.10;;;;;;;;;;110650;1275;22135;-77
2023/01/13 04:03:25;;;;;;;4.80;1.30;;;;;;;;;;110431;1275;22116;-79
2023/01/13 04:06:22;;;;;;;6.00;1.40;;;;;;;;;;110794;1255;22094;-78
2023/01/13 04:09:47;;;;;;;7.30;1.60;;;;;;;;;;110679;1275;22112;-77
2023/01/13 04:12:07;;;;;;;6.80;1.50;;;;;;;;;;110542;1275;22002;-77
2023/01/13 04:14:46;;;;;;;;;;;;;;;;;;;;;
2023/01/13 04:17:32;;;;;;;5.60;1.20;;;;;;;;;;110759;1256;22112;-77
2023/01/13 04:20:02;;;;;;;3.40;1.10;;;;;;;;;;110665;1275;22267;-78
2023/01/13 04:22:35;;;;;;;5.30;1.20;;;;;;;;;;110531;1275;22377;-78
2023/01/13 04:25:08;;;;;;;4.50;1.10;;;;;;;;;;110579;1275;22248;-79
2023/01/13 04:27:34;;;;;;;3.50;1.00;;;;;;;;;;110684;1253;22094;-76
2023/01/13 04:30:06;;;;;;;3.70;1.20;;;;;;;;;;110627;1272;22045;-78
2023/01/13 04:32:33;;;;;;;5.60;1.00;;;;;;;;;;110492;1275;23115;-78
2023/01/13 04:35:00;;;;;;;3.70;0.90;;;;;;;;;;110621;1275;22146;-79
2023/01/13 04:37:26;;;;;;;3.90;0.90;;;;;;;;;;110745;1256;22134;-77
2023/01/13 04:39:52;;;;;;;3.10;0.80;;;;;;;;;;110473;1275;21796;-78
2023/01/13 04:42:18;;;;;;;3.50;1.00;;;;;;;;;;110650;1275;22310;-77
2023/01/13 04:44:47;;;;;;;3.90;1.00;;;;;;;;;;110459;1275;22317;-77
2023/01/13 04:47:18;;;;;;;3.90;1.20;;;;;;;;;;110271;1263;22872;-78
2023/01/13 04:49:45;;;;;;;4.30;1.00;;;;;;;;;;110374;1267;22818;-77
2023/01/13 04:52:11;;;;;;;2.80;1.00;;;;;;;;;;110624;1276;22208;-78
2023/01/13 04:54:37;;;;;;;3.80;0.90;;;;;;;;;;110282;1276;22117;-78
2023/01/13 04:57:12;;;;;;;3.80;1.20;;;;;;;;;;110422;1259;22387;-78
2023/01/13 04:59:40;;;;;;;4.50;1.30;;;;;;;;;;110494;1275;22167;-78
2023/01/13 05:02:08;;;;;;;5.50;1.10;;;;;;;;;;110231;1275;23037;-78
2023/01/13 05:04:34;;;;;;;4.00;0.90;;;;;;;;;;110411;1275;22043;-78
2023/01/13 05:07:03;;;;;;;3.30;0.90;;;;;;;;;;110345;1262;22438;-77
2023/01/13 05:09:32;;;;;;;3.10;0.90;;;;;;;;;;110434;1275;22126;-77
2023/01/13 05:17:28;;;;;;;7.50;1.60;;;;;;;;;;110380;1259;22157;-78
2023/01/13 05:19:57;;;;;;;6.00;1.40;;;;;;;;;;110486;1275;22919;-78
2023/01/13 05:25:21;;;;;;;5.90;1.50;;;;;;;;;;110488;1275;22191;-78
2023/01/13 05:28:46;;;;;;;5.20;1.40;;;;;;;;;;110493;1258;22050;-78
2023/01/13 05:31:18;;;;;;;6.30;1.50;;;;;;;;;;110523;1275;22344;-77
2023/01/13 05:34:05;;;;;;;7.20;1.60;;;;;;;;;;110524;1275;22880;-79
2023/01/13 05:36:31;;;;;;;7.80;1.50;;;;;;;;;;110456;1276;22142;-77
2023/01/13 05:39:16;;;;;;;;;;;;;;;;;;;;;
2023/01/13 05:44:45;;;;;;;;;;;;;;;;;;;;;
2023/01/13 05:47:31;;;;;;;5.70;1.20;;;;;;;;;;110371;1253;22336;-78
2023/01/13 05:50:17;;;;;;;5.00;1.30;;;;;;;;;;110327;1276;22123;-77
2023/01/13 05:52:52;;;;;;;4.60;1.00;;;;;;;;;;110310;1276;22582;-77
2023/01/13 05:55:39;;;;;;;6.50;1.50;;;;;;;;;;110344;1276;22221;-77
2023/01/13 05:58:06;;;;;;;7.60;1.70;;;;;;;;;;110477;1259;22179;-77
2023/01/13 06:00:40;;;;;;;6.90;1.90;;;;;;;;;;110250;1276;22108;-77
2023/01/13 06:03:07;;;;;;;7.70;1.80;;;;;;;;;;110279;1276;22524;-78
2023/01/13 06:05:33;;;;;;;5.10;1.30;;;;;;;;;;110322;1276;22880;-77
2023/01/13 06:08:00;;;;;;;3.40;0.90;;;;;;;;;;110359;1259;22128;-80
2023/01/13 06:10:29;;;;;;;5.30;1.00;;;;;;;;;;110337;1275;22097;-78
2023/01/13 06:13:03;;;;;;;5.10;1.10;;;;;;;;;;110321;1275;22182;-79
2023/01/13 06:15:32;;;;;;;5.50;1.00;;;;;;;;;;110384;1275;22141;-79
2023/01/13 06:21:55;;;;;;;3.80;1.00;;;;;;;;;;110551;1275;22171;-79
2023/01/13 06:24:21;;;;;;;4.00;0.80;;;;;;;;;;110372;1275;22164;-80
2023/01/13 06:26:59;;;;;;;4.00;0.80;;;;;;;;;;110273;1275;22765;-80
2023/01/13 06:29:25;;;;;;;6.50;1.50;;;;;;;;;;110779;1256;22176;-80
2023/01/13 06:31:51;;;;;;;10.00;2.40;;;;;;;;;;110352;1275;22124;-79
2023/01/13 06:34:18;;;;;;;7.80;1.90;;;;;;;;;;110431;1276;22190;-76
2023/01/13 06:36:46;;;;;;;7.20;1.80;;;;;;;;;;110310;1276;23042;-78
2023/01/13 06:39:19;;;;;;;8.80;1.90;;;;;;;;;;110712;1256;22180;-78
2023/01/13 06:44:33;;;;;;;20.80;5.10;;;;;;;;;;110647;1275;22293;-77
2023/01/13 06:46:59;;;;;;;12.10;2.40;;;;;;;;;;110443;1275;21990;-78
2023/01/13 06:49:26;;;;;;;16.70;3.90;;;;;;;;;;110406;1260;22128;-77
2023/01/13 06:51:52;;;;;;;13.00;3.20;;;;;;;;;;110630;1275;22304;-77
2023/01/13 06:54:21;;;;;;;11.80;3.10;;;;;;;;;;110435;1276;22198;-77
2023/01/13 06:56:47;;;;;;;10.10;2.40;;;;;;;;;;110322;1275;22124;-77
2023/01/13 06:59:13;;;;;;;9.00;2.30;;;;;;;;;;110353;1260;22835;-79
2023/01/13 07:01:39;;;;;;;7.20;1.40;;;;;;;;;;110312;1275;22852;-77
2023/01/13 07:04:05;;;;;;;5.80;1.30;;;;;;;;;;110652;1275;22127;-79
2023/01/13 07:06:33;;;;;;;6.50;1.60;;;;;;;;;;110341;1275;22128;-77
2023/01/13 07:08:59;;;;;;;6.50;1.40;;;;;;;;;;110493;1254;22341;-78
2023/01/13 07:11:29;;;;;;;5.70;1.70;;;;;;;;;;110455;1275;22123;-76
2023/01/13 07:16:43;;;;;;;10.10;2.70;;;;;;;;;;110486;1275;22397;-77
2023/01/13 07:19:09;;;;;;;14.20;2.30;;;;;;;;;;110471;1254;22115;-78
2023/01/13 07:21:36;;;;;;;5.70;1.40;;;;;;;;;;110623;1275;22174;-77
2023/01/13 07:24:02;;;;;;;6.00;1.30;;;;;;;;;;110446;1276;23157;-78
2023/01/13 07:26:28;;;;;;;6.30;1.30;;;;;;;;;;110349;1276;22108;-76
2023/01/13 07:28:54;;;;;;;5.80;1.40;;;;;;;;;;110373;1276;22410;-78
2023/01/13 07:31:21;;;;;;;6.10;1.90;;;;;;;;;;110350;1260;22141;-76
2023/01/13 07:33:47;;;;;;;5.80;1.40;;;;;;;;;;110444;1275;22345;-77
2023/01/13 07:36:14;;;;;;;5.30;1.30;;;;;;;;;;110197;1276;22162;-78
2023/01/13 07:38:43;;;;;;;4.50;1.40;;;;;;;;;;110590;1276;22181;-77
2023/01/13 07:44:03;;;;;;;7.10;1.40;;;;;;;;;;110455;1276;22180;-80
2023/01/13 07:46:30;;;;;;;7.20;2.10;;;;;;;;;;110277;1276;22869;-78
2023/01/13 07:49:00;;;;;;;7.10;2.20;;;;;;;;;;110397;1276;22163;-77
2023/01/13 07:51:30;;;;;;;8.60;2.40;;;;;;;;;;110308;1260;22095;-77
2023/01/13 07:53:57;;;;;;;6.30;2.20;;;;;;;;;;110232;1276;22839;-77
2023/01/13 07:56:24;;;;;;;9.70;2.50;;;;;;;;;;110387;1276;22772;-76
2023/01/13 07:58:52;;;;;;;7.00;1.90;;;;;;;;;;110484;1266;22128;-77
2023/01/13 08:01:19;;;;;;;6.90;2.20;;;;;;;;;;110313;1260;22386;-77
2023/01/13 08:03:48;;;;;;;5.40;1.60;;;;;;;;;;110276;1276;22099;-76
2023/01/13 08:06:16;;;;;;;5.90;1.40;;;;;;;;;;110365;1276;22144;-77
2023/01/13 08:08:43;;;;;;;5.20;1.30;;;;;;;;;;110377;1276;22838;-77
2023/01/13 08:11:10;;;;;;;5.50;1.60;;;;;;;;;;110489;1259;22174;-77
2023/01/13 08:13:41;;;;;;;5.80;1.60;;;;;;;;;;110378;1276;22153;-76
2023/01/13 08:16:09;;;;;;;6.10;1.80;;;;;;;;;;110629;1276;22418;-76
2023/01/13 08:18:37;;;;;;;7.50;1.70;;;;;;;;;;110609;1276;22124;-76
2023/01/13 08:21:06;;;;;;;6.50;1.80;;;;;;;;;;110274;1260;22204;-77
2023/01/13 08:23:32;;;;;;;9.10;2.50;;;;;;;;;;110387;1276;22141;-77
2023/01/13 08:26:06;;;;;;;9.10;3.00;;;;;;;;;;110387;1276;22137;-77
2023/01/13 08:28:34;;;;;;;8.20;2.60;;;;;;;;;;110400;1276;22218;-77
2023/01/13 08:31:03;;;;;;;7.90;2.50;;;;;;;;;;110336;1260;22103;-78
2023/01/13 08:33:29;;;;;;;7.40;2.50;;;;;;;;;;110311;1276;22091;-77
2023/01/13 08:35:58;;;;;;;6.00;1.70;;;;;;;;;;110358;1276;22120;-81
2023/01/13 08:38:29;;;;;;;6.70;2.20;;;;;;;;;;110472;1273;22175;-78
2023/01/13 08:40:59;;;;;;;7.90;2.10;;;;;;;;;;110240;1258;22784;-77
2023/01/13 08:43:28;;;;;;;7.70;2.40;;;;;;;;;;110490;1276;22201;-76
2023/01/13 08:46:03;;;;;;;9.40;2.70;;;;;;;;;;110323;1276;22097;-78
2023/01/13 08:48:34;;;;;;;7.70;2.00;;;;;;;;;;110210;1276;22168;-76
2023/01/13 08:51:03;;;;;;;6.20;2.10;;;;;;;;;;110258;1257;23005;-77
2023/01/13 08:53:35;;;;;;;8.50;2.70;;;;;;;;;;110289;1276;22568;-77
2023/01/13 08:56:11;;;;;;;7.30;2.10;;;;;;;;;;110318;1276;22138;-78
2023/01/13 08:58:39;;;;;;;7.00;1.80;;;;;;;;;;110247;1273;22134;-76
2023/01/13 09:01:08;;;;;;;5.40;1.50;;;;;;;;;;110305;1254;22146;-77
2023/01/13 09:03:40;;;;;;;9.40;2.40;;;;;;;;;;110463;1276;22933;-77
2023/01/13 09:06:09;;;;;;;9.80;2.50;;;;;;;;;;110428;1276;22167;-77
2023/01/13 09:08:39;;;;;;;7.90;2.20;;;;;;;;;;110347;1273;22135;-77
2023/01/13 09:14:04;;;;;;;6.90;2.00;;;;;;;;;;110338;1276;22844;-76
2023/01/13 09:16:35;;;;;;;8.50;2.10;;;;;;;;;;110340;1274;22179;-76
2023/01/13 09:19:05;;;;;;;9.30;2.00;;;;;;;;;;110347;1276;22248;-77
2023/01/13 09:21:46;;;;;;;8.00;1.80;;;;;;;;;;110572;1254;22870;-77
2023/01/13 09:24:15;;;;;;;8.20;2.40;;;;;;;;;;110348;1276;22103;-77
2023/01/13 09:26:44;;;;;;;8.70;2.20;;;;;;;;;;110244;1277;22203;-76
2023/01/13 09:29:13;;;;;;;9.80;2.40;;;;;;;;;;110350;1270;22199;-77
2023/01/13 09:31:41;;;;;;;7.20;2.20;;;;;;;;;;110540;1254;22230;-77
2023/01/13 09:44:09;;;;;;;6.70;1.80;;;;;;;;;;103769;1295;545026;-78
2023/01/13 09:46:43;;;;;;;6.40;1.90;;;;;;;;;;106414;1287;22558;-79
2023/01/13 09:49:27;;;;;;;5.80;1.70;;;;;;;;;;106408;1287;24366;-83
2023/01/13 09:51:57;;;;;;;6.60;1.60;;;;;;;;;;106115;1287;24010;-85
2023/01/13 09:54:31;;;;;;;7.60;2.30;;;;;;;;;;106121;1272;24423;-82
2023/01/13 09:57:05;;;;;;;6.40;2.10;;;;;;;;;;105127;1280;1900158;-79
2023/01/13 09:59:48;;;;;;;;;;;;;;;;;;;;;
2023/01/13 10:02:44;;;;;;;8.60;2.40;;;;;;;;;;106845;1280;24247;-83
2023/01/13 10:05:17;;;;;;;5.90;2.00;;;;;;;;;;106804;1280;22590;-80
2023/01/13 10:08:04;;;;;;;6.50;2.00;;;;;;;;;;106729;1280;22536;-83
2023/01/13 10:13:12;;;;;;;8.50;2.10;;;;;;;;;;107287;1273;24221;-82
2023/01/13 10:13:51;;;;;;;7.70;2.50;;;;;;;;;;107193;1254;22527;-79
2023/01/13 10:16:26;;;;;;;7.50;2.20;;;;;;;;;;107283;1272;25230;-81
2023/01/13 10:19:02;;;;;;;8.70;1.80;;;;;;;;;;107182;1273;25331;-81
2023/01/13 10:21:52;;;;;;;7.90;1.70;;;;;;;;;;107284;1273;24051;-79
2023/01/13 10:24:25;;;;;;;8.90;1.50;;;;;;;;;;107128;1256;22545;-78
2023/01/13 10:42:41;;;;;;;6.60;2.00;;;;;;;;;;104683;1285;550507;-79
2023/01/13 10:45:16;;;;;;;6.70;1.80;;;;;;;;;;104634;1286;1750560;-83
2023/01/13 10:47:54;;;;;;;5.90;1.90;;;;;;;;;;106248;1286;22633;-81
2023/01/13 10:50:23;;;;;;;7.50;2.30;;;;;;;;;;106442;1286;22548;-84
2023/01/13 10:53:25;;;;;;;12.70;2.70;;;;;;;;;;106240;1287;24368;-85
2023/01/13 10:56:22;;;;;;;10.60;3.80;;;;;;;;;;105759;1293;25262;-78
2023/01/13 10:58:50;;;;;;;10.00;3.20;;;;;;;;;;106430;1282;22656;-79
2023/01/13 11:01:24;;;;;;;14.60;6.60;;;;;;;;;;106453;1261;23798;-82
2023/01/13 11:03:56;;;;;;;7.20;2.60;;;;;;;;;;106413;1281;25325;-82
2023/01/13 11:06:26;;;;;;;30.00;16.70;;;;;;;;;;106813;1281;25239;-78
2023/01/13 11:08:54;;;;;;;9.20;3.00;;;;;;;;;;106512;1281;22540;-77
2023/01/13 11:11:41;;;;;;;29.50;17.40;;;;;;;;;;106542;1257;25465;-82
2023/01/13 11:14:32;;;;;;;41.10;21.20;;;;;;;;;;106448;1281;22626;-84
2023/01/13 11:17:08;;;;;;;12.00;4.90;;;;;;;;;;106486;1281;22541;-80
2023/01/13 11:19:47;;;;;;;;;;;;;;;;;;;;;
2023/01/13 11:22:38;;;;;;;13.80;5.10;;;;;;;;;;106567;1265;22544;-79
2023/01/13 11:25:22;;;;;;;14.00;4.40;;;;;;;;;;106512;1281;24269;-83
2023/01/13 11:27:51;;;;;;;7.20;2.40;;;;;;;;;;106554;1281;22504;-85
2023/01/13 11:30:23;;;;;;;11.10;3.70;;;;;;;;;;106673;1281;25422;-78
2023/01/13 11:33:02;;;;;;;9.60;3.50;;;;;;;;;;106839;1268;22532;-84
2023/01/13 11:35:30;;;;;;;8.80;2.70;;;;;;;;;;106911;1276;24361;-79
2023/01/13 11:38:00;;;;;;;11.40;3.60;;;;;;;;;;106947;1276;22538;-78
2023/01/13 11:40:39;;;;;;;10.70;3.30;;;;;;;;;;106871;1276;22558;-83
2023/01/13 11:46:41;;;;;;;33.00;14.60;;;;;;;;;;107155;1274;24226;-77
2023/01/13 11:49:13;;;;;;;12.90;4.70;;;;;;;;;;107106;1251;22557;-82
2023/01/13 11:51:47;;;;;;;11.00;4.00;;;;;;;;;;107129;1274;22529;-81
2023/01/13 11:54:17;;;;;;;11.10;3.20;;;;;;;;;;106854;1276;23888;-77
2023/01/13 11:56:58;;;;;;;15.70;4.10;;;;;;;;;;106886;1270;26384;-78
2023/01/13 11:59:25;;;;;;;11.10;3.10;;;;;;;;;;106883;1276;22523;-81
2023/01/13 12:02:19;;;;;;;8.70;3.20;;;;;;;;;;106926;1276;22915;-85
2023/01/13 12:04:46;;;;;;;27.50;13.80;;;;;;;;;;106950;1258;23431;-78
2023/01/13 12:07:13;;;;;;;27.00;12.70;;;;;;;;;;106955;1275;22628;-77
2023/01/13 12:09:48;;;;;;;10.10;3.80;;;;;;;;;;107289;1275;24199;-83
2023/01/13 12:12:18;;;;;;;10.20;3.70;;;;;;;;;;107138;1258;22533;-79
2023/01/13 12:15:13;;;;;;;11.60;4.00;;;;;;;;;;106926;1257;24662;-78
2023/01/13 12:17:49;;;;;;;9.80;2.80;;;;;;;;;;106927;1276;25552;-84
2023/01/13 12:20:28;;;;;;;15.90;4.60;;;;;;;;;;106921;1256;22577;-80
2023/01/13 12:22:57;;;;;;;10.30;3.00;;;;;;;;;;106934;1275;24212;-76
2023/01/13 12:25:33;;;;;;;10.40;3.40;;;;;;;;;;106980;1274;25357;-81
2023/01/13 12:28:06;;;;;;;16.20;6.40;;;;;;;;;;107003;1270;22533;-84
2023/01/13 12:30:44;;;;;;;11.50;4.30;;;;;;;;;;106948;1275;22657;-76
2023/01/13 12:33:32;;;;;;;10.10;3.70;;;;;;;;;;107117;1273;26979;-76
2023/01/13 12:36:18;;;;;;;;;;;;;;;;;;;;;
2023/01/13 12:39:15;;;;;;;8.70;3.40;;;;;;;;;;107166;1275;24323;-79
2023/01/13 12:45:13;;;;;;;8.30;2.90;;;;;;;;;;106986;1267;24247;-85
2023/01/13 12:47:47;;;;;;;11.70;4.10;;;;;;;;;;106988;1270;25290;-80
2023/01/13 12:50:39;;;;;;;;;;;;;;;;;;;;;
2023/01/13 12:53:33;;;;;;;9.60;3.00;;;;;;;;;;107058;1270;22536;-79
2023/01/13 12:56:31;;;;;;;10.20;3.10;;;;;;;;;;107061;1257;22537;-80
2023/01/13 13:02:46;;;;;;;11.10;4.50;;;;;;;;;;107294;1272;22779;-81
2023/01/13 13:05:54;;;;;;;10.90;4.00;;;;;;;;;;106726;1260;24314;-79
2023/01/13 13:08:52;;;;;;;11.40;4.30;;;;;;;;;;106544;1280;22545;-80
2023/01/13 13:14:57;;;;;;;12.00;6.10;;;;;;;;;;106405;1280;22568;-80
2023/01/13 13:17:49;;;;;;;12.70;5.80;;;;;;;;;;106459;1267;25479;-78
2023/01/13 13:20:41;;;;;;;13.80;7.10;;;;;;;;;;106566;1280;25251;-82
2023/01/13 13:23:35;;;;;;;;;;;;;;;;;;;;;
2023/01/13 13:26:25;;;;;;;13.20;6.60;;;;;;;;;;106599;1268;25303;-81
2023/01/13 13:28:55;;;;;;;14.00;6.10;;;;;;;;;;106539;1280;22653;-81
2023/01/13 13:31:33;;;;;;;13.30;4.70;;;;;;;;;;106177;1279;24376;-79
2023/01/13 13:34:12;;;;;;;10.80;3.50;;;;;;;;;;106431;1280;25272;-79
2023/01/13 13:37:17;;;;;;;13.30;5.10;;;;;;;;;;106357;1264;25359;-78
2023/01/13 13:48:35;;;;;;;32.60;10.50;;;;;;;;;;107227;1268;25348;-82
2023/01/13 13:51:43;;;;;;;26.00;7.20;;;;;;;;;;107062;1273;22630;-82
2023/01/13 13:54:13;;;;;;;18.50;5.30;;;;;;;;;;107094;1270;25387;-81
2023/01/13 13:56:49;;;;;;;18.50;7.30;;;;;;;;;;107096;1257;22575;-84
2023/01/13 13:59:37;;;;;;;17.30;5.60;;;;;;;;;;106794;1276;22536;-83
2023/01/13 14:02:14;;;;;;;11.00;4.00;;;;;;;;;;106854;1276;25318;-78
2023/01/13 14:04:44;;;;;;;14.00;4.30;;;;;;;;;;106842;1276;25347;-78
2023/01/13 14:07:20;;;;;;;13.10;3.50;;;;;;;;;;106924;1259;22540;-79
2023/01/13 14:09:58;;;;;;;14.80;4.70;;;;;;;;;;106918;1275;26499;-77
2023/01/13 14:12:36;;;;;;;16.40;5.30;;;;;;;;;;106933;1275;25433;-78
2023/01/13 14:15:24;;;;;;;13.60;5.50;;;;;;;;;;106929;1275;25341;-79
2023/01/13 14:17:57;;;;;;;15.20;4.30;;;;;;;;;;106917;1260;22748;-82
2023/01/13 14:20:26;;;;;;;16.60;5.80;;;;;;;;;;106884;1276;25391;-77
2023/01/13 14:23:04;;;;;;;11.70;4.00;;;;;;;;;;106884;1276;22534;-81
2023/01/13 14:25:47;;;;;;;16.40;6.50;;;;;;;;;;106839;1276;22591;-79
2023/01/13 14:28:19;;;;;;;10.20;4.10;;;;;;;;;;107058;1269;22527;-78
2023/01/13 14:31:00;;;;;;;9.90;4.30;;;;;;;;;;106885;1275;26479;-79
2023/01/13 14:33:46;;;;;;;14.50;4.40;;;;;;;;;;106976;1274;22539;-80
2023/01/13 14:36:34;;;;;;;14.90;6.30;;;;;;;;;;106940;1275;24216;-83
2023/01/13 14:39:09;;;;;;;21.10;8.10;;;;;;;;;;107125;1257;22503;-78
2023/01/13 14:42:12;;;;;;;29.80;11.40;;;;;;;;;;107208;1274;22540;-83
2023/01/13 14:44:46;;;;;;;37.00;14.70;;;;;;;;;;106999;1274;22534;-85
2023/01/13 14:47:24;;;;;;;40.10;11.90;;;;;;;;;;107014;1253;22538;-83
2023/01/13 14:50:01;;;;;;;38.20;11.30;;;;;;;;;;106932;1275;24198;-84
2023/01/13 14:52:33;;;;;;;25.00;7.50;;;;;;;;;;106924;1275;23071;-81
2023/01/13 14:55:40;;;;;;;28.10;8.10;;;;;;;;;;106919;1275;22547;-80
2023/01/13 14:58:23;;;;;;;34.20;11.10;;;;;;;;;;107064;1257;25232;-82
2023/01/13 15:01:11;;;;;;;38.30;14.00;;;;;;;;;;107229;1274;26603;-82
2023/01/13 15:03:52;;;;;;;33.30;13.50;;;;;;;;;;106965;1274;22539;-79
2023/01/13 15:06:36;;;;;;;40.50;16.30;;;;;;;;;;107088;1274;25382;-78
2023/01/13 15:09:22;;;;;;;34.30;14.70;;;;;;;;;;106779;1261;22533;-81
2023/01/13 15:11:57;;;;;;;34.90;13.40;;;;;;;;;;106971;1273;24224;-78
2023/01/13 15:14:30;;;;;;;34.50;13.70;;;;;;;;;;106999;1276;22886;-82
2023/01/13 15:16:57;;;;;;;42.10;20.40;;;;;;;;;;110394;1276;22125;-77
2023/01/13 15:19:24;;;;;;;82.60;39.90;;;;;;;;;;110359;1255;22129;-77
2023/01/13 15:21:51;;;;;;;82.30;36.50;;;;;;;;;;110277;1276;22398;-77
2023/01/13 15:24:17;;;;;;;97.10;40.20;;;;;;;;;;110490;1276;22113;-77
2023/01/13 15:26:44;;;;;;;94.80;41.50;;;;;;;;;;110395;1276;22017;-77
2023/01/13 15:29:13;;;;;;;63.80;27.80;;;;;;;;;;110492;1258;22374;-77
2023/01/13 15:31:41;;;;;;;55.90;24.60;;;;;;;;;;110393;1276;22962;-77
2023/01/13 15:34:08;;;;;;;51.20;22.20;;;;;;;;;;110364;1276;22135;-76
2023/01/13 15:36:36;;;;;;;43.40;19.80;;;;;;;;;;110376;1276;22147;-77
2023/01/13 15:39:03;;;;;;;50.40;23.20;;;;;;;;;;110614;1254;22196;-77
2023/01/13 15:47:03;;;;;;;291.40;111.40;;;;;;;;;;110487;1275;22131;-77
2023/01/13 15:49:38;;;;;;;167.10;62.40;;;;;;;;;;110449;1255;22173;-77
2023/01/13 15:52:17;;;;;;;77.70;32.50;;;;;;;;;;110192;1276;22141;-77
2023/01/13 15:54:44;;;;;;;106.90;47.10;;;;;;;;;;110415;1276;22821;-77
2023/01/13 15:57:23;;;;;;;168.50;62.10;;;;;;;;;;110546;1276;22122;-76
2023/01/13 15:59:51;;;;;;;261.00;79.10;;;;;;;;;;110594;1254;22140;-77
2023/01/13 16:02:21;;;;;;;227.50;63.60;;;;;;;;;;110529;1276;22133;-77
2023/01/13 16:04:50;;;;;;;164.70;52.50;;;;;;;;;;110393;1276;22111;-77
2023/01/13 16:07:17;;;;;;;168.00;57.50;;;;;;;;;;110417;1276;22138;-77
2023/01/13 16:09:44;;;;;;;156.00;57.20;;;;;;;;;;110580;1256;22148;-78
2023/01/13 16:12:12;;;;;;;179.80;70.90;;;;;;;;;;110437;1276;22707;-77
2023/01/13 16:14:39;;;;;;;202.90;78.50;;;;;;;;;;110437;1276;22300;-79
2023/01/13 16:17:15;;;;;;;224.50;88.50;;;;;;;;;;110428;1276;22133;-77
2023/01/13 16:19:45;;;;;;;230.80;106.30;;;;;;;;;;110463;1255;22101;-77
2023/01/13 16:22:13;;;;;;;223.60;103.40;;;;;;;;;;110581;1275;22518;-77
2023/01/13 16:24:40;;;;;;;190.00;85.00;;;;;;;;;;110631;1275;22181;-77
2023/01/13 16:27:12;;;;;;;102.90;51.60;;;;;;;;;;110448;1275;22132;-77
2023/01/13 16:29:39;;;;;;;54.60;29.30;;;;;;;;;;110441;1257;22157;-78
2023/01/13 16:32:10;;;;;;;50.70;26.60;;;;;;;;;;110392;1270;22151;-77
2023/01/13 16:34:37;;;;;;;39.90;21.70;;;;;;;;;;110160;1276;22943;-80
2023/01/13 16:37:05;;;;;;;29.40;15.90;;;;;;;;;;110197;1276;22241;-77
2023/01/13 16:39:32;;;;;;;33.90;16.90;;;;;;;;;;110209;1253;22170;-78
2023/01/13 16:42:02;;;;;;;37.40;19.30;;;;;;;;;;110496;1275;22721;-78
2023/01/13 16:44:29;;;;;;;30.10;17.40;;;;;;;;;;110292;1275;22113;-77
2023/01/13 16:46:56;;;;;;;33.50;17.40;;;;;;;;;;110620;1275;22988;-77
2023/01/13 16:49:25;;;;;;;23.70;12.00;;;;;;;;;;110413;1274;23001;-78